createdAt,value
2023-05-13T00:00:13.804Z,11.4348
2023-05-13T00:01:14.798Z,11.4689
2023-05-13T00:02:15.718Z,11.5224
2023-05-13T00:03:16.854Z,11.5591
2023-05-13T00:04:18.809Z,11.6087
2023-05-13T00:05:19.792Z,11.5347
2023-05-13T00:06:20.769Z,11.4382
2023-05-13T00:07:21.728Z,11.4475
2023-05-13T00:08:22.644Z,11.3332
2023-05-13T00:09:23.651Z,11.2510
2023-05-13T00:10:24.635Z,11.3576
2023-05-13T00:11:25.578Z,11.3760
2023-05-13T00:12:26.537Z,11.4290
2023-05-13T00:13:27.475Z,11.4858
2023-05-13T00:14:28.403Z,11.4044
2023-05-13T00:15:29.393Z,11.3231
2023-05-13T00:16:30.406Z,11.3140
2023-05-13T00:17:31.381Z,11.2641
2023-05-13T00:18:32.299Z,11.2121
2023-05-13T00:19:33.265Z,11.2429
2023-05-13T00:20:34.166Z,11.2048
2023-05-13T00:21:35.138Z,11.1451
2023-05-13T00:22:36.044Z,11.0711
2023-05-13T00:23:36.950Z,11.0879
2023-05-13T00:24:37.978Z,11.1928
2023-05-13T00:25:38.952Z,11.2103
2023-05-13T00:26:40.271Z,11.2090
2023-05-13T00:27:41.233Z,11.1217
2023-05-13T00:28:42.131Z,11.0785
2023-05-13T00:29:43.160Z,11.0945
2023-05-13T00:30:44.147Z,11.0086
2023-05-13T00:31:45.069Z,10.9823
2023-05-13T00:32:46.127Z,10.9781
2023-05-13T00:33:47.002Z,11.0612
2023-05-13T00:34:47.978Z,11.1615
2023-05-13T00:35:48.896Z,11.1679
2023-05-13T00:36:49.882Z,11.1853
2023-05-13T00:37:50.831Z,11.1684
2023-05-13T00:38:51.820Z,11.0991
2023-05-13T00:39:52.722Z,11.0651
2023-05-13T00:40:53.670Z,11.0108
2023-05-13T00:41:54.618Z,10.9921
2023-05-13T00:42:55.558Z,11.0225
2023-05-13T00:43:56.461Z,11.0327
2023-05-13T00:44:57.501Z,11.0553
2023-05-13T00:45:58.424Z,11.0705
2023-05-13T00:46:59.396Z,11.1835
2023-05-13T00:48:00.468Z,11.2669
2023-05-13T00:49:01.380Z,11.3893
2023-05-13T00:50:02.355Z,11.4872
2023-05-13T00:51:03.277Z,11.3723
2023-05-13T00:52:04.278Z,11.3117
2023-05-13T00:53:05.254Z,11.2066
2023-05-13T00:54:06.198Z,11.1068
2023-05-13T00:55:07.206Z,11.0624
2023-05-13T00:56:08.133Z,11.1245
2023-05-13T00:57:09.113Z,11.0555
2023-05-13T00:58:10.044Z,11.0843
2023-05-13T00:59:11.023Z,11.2009
2023-05-13T01:00:12.056Z,11.3163
2023-05-13T01:01:13.115Z,11.4266
2023-05-13T01:02:14.027Z,11.4869
2023-05-13T01:03:15.107Z,11.6185
2023-05-13T01:04:16.067Z,11.5699
2023-05-13T01:05:17.075Z,11.6809
2023-05-13T01:06:17.988Z,11.6839
2023-05-13T01:07:18.959Z,11.6498
2023-05-13T01:08:19.855Z,11.6976
2023-05-13T01:09:20.854Z,11.6793
2023-05-13T01:10:22.005Z,11.5635
2023-05-13T01:11:23.163Z,11.5257
2023-05-13T01:12:24.143Z,11.5469
2023-05-13T01:13:25.157Z,11.4615
2023-05-13T01:14:26.114Z,11.5490
2023-05-13T01:15:27.083Z,11.4465
2023-05-13T01:16:28.038Z,11.3946
2023-05-13T01:17:29.054Z,11.4662
2023-05-13T01:18:29.973Z,11.5382
2023-05-13T01:19:30.977Z,11.4701
2023-05-13T01:20:31.860Z,11.5798
2023-05-13T01:21:33.828Z,11.7450
2023-05-13T01:22:34.783Z,11.8697
2023-05-13T01:23:35.748Z,11.9297
2023-05-13T01:24:36.727Z,11.7828
2023-05-13T01:25:37.666Z,11.7123
2023-05-13T01:26:38.643Z,11.8356
2023-05-13T01:27:39.575Z,11.9647
2023-05-13T01:28:40.572Z,12.0947
2023-05-13T01:29:41.467Z,11.9309
2023-05-13T01:30:42.441Z,11.7789
2023-05-13T01:31:43.477Z,11.7588
2023-05-13T01:32:44.427Z,11.6136
2023-05-13T01:33:45.296Z,11.6484
2023-05-13T01:34:46.285Z,11.6725
2023-05-13T01:35:47.306Z,11.7447
2023-05-13T01:36:48.410Z,11.8854
2023-05-13T01:37:50.273Z,11.9694
2023-05-13T01:43:50.084Z,11.7584
2023-05-13T01:43:50.084Z,11.6656
2023-05-13T01:43:50.084Z,11.6857
2023-05-13T01:46:30.919Z,11.7055
2023-05-13T01:46:30.919Z,11.6402
2023-05-13T01:47:18.874Z,11.7036
2023-05-13T01:48:19.868Z,11.7303
2023-05-13T01:49:20.781Z,11.8315
2023-05-13T01:50:21.975Z,11.9378
2023-05-13T01:51:23.016Z,11.9775
2023-05-13T01:52:24.049Z,11.9371
2023-05-13T01:53:24.930Z,11.8983
2023-05-13T01:54:25.918Z,11.9286
2023-05-13T01:55:26.895Z,12.0489
2023-05-13T01:56:27.846Z,12.0164
2023-05-13T01:57:28.813Z,11.9579
2023-05-13T01:58:29.767Z,11.8635
2023-05-13T01:59:30.728Z,11.7081
2023-05-13T02:00:31.686Z,11.8299
2023-05-13T02:01:32.666Z,12.0217
2023-05-13T02:02:33.674Z,12.1284
2023-05-13T02:03:34.630Z,12.2456
2023-05-13T02:04:35.573Z,12.3555
2023-05-13T02:05:36.525Z,12.3853
2023-05-13T02:06:37.484Z,12.4809
2023-05-13T02:07:38.413Z,12.5561
2023-05-13T02:08:39.324Z,12.5372
2023-05-13T02:09:40.308Z,12.5307
2023-05-13T02:10:41.226Z,12.5238
2023-05-13T02:11:42.225Z,12.3923
2023-05-13T02:12:43.235Z,12.4063
2023-05-13T02:13:44.277Z,12.4929
2023-05-13T02:14:46.213Z,12.5362
2023-05-13T02:15:47.195Z,12.6141
2023-05-13T02:16:48.456Z,12.4899
2023-05-13T02:17:49.575Z,12.2718
2023-05-13T02:18:50.592Z,12.1435
2023-05-13T02:19:51.513Z,12.2314
2023-05-13T02:20:52.654Z,12.3154
2023-05-13T02:21:53.562Z,12.2072
2023-05-13T02:22:54.611Z,12.2978
2023-05-13T02:23:55.532Z,12.3753
2023-05-13T02:29:03.951Z,12.1851
2023-05-13T02:29:03.951Z,12.1485
2023-05-13T02:29:03.951Z,12.2123
2023-05-13T02:30:04.862Z,12.2375
2023-05-13T02:31:05.864Z,12.2539
2023-05-13T02:32:07.032Z,12.1931
2023-05-13T02:33:08.190Z,11.9760
2023-05-13T02:34:09.196Z,11.8439
2023-05-13T02:35:10.150Z,11.9251
2023-05-13T02:36:11.189Z,12.0399
2023-05-13T02:37:12.161Z,12.1251
2023-05-13T02:38:13.122Z,12.2197
2023-05-13T02:39:14.150Z,12.3195
2023-05-13T02:40:15.136Z,12.3857
2023-05-13T02:41:16.150Z,12.4310
2023-05-13T02:42:17.158Z,12.2554
2023-05-13T02:43:18.089Z,12.2530
2023-05-13T02:44:19.113Z,11.9612
2023-05-13T02:45:20.091Z,11.9153
2023-05-13T02:46:21.229Z,12.0344
2023-05-13T02:47:22.214Z,11.9715
2023-05-13T02:48:23.202Z,11.9920
2023-05-13T02:49:24.143Z,12.1000
2023-05-13T02:50:25.185Z,12.1791
2023-05-13T02:51:26.124Z,12.2123
2023-05-13T02:52:27.126Z,12.1578
2023-05-13T02:53:28.129Z,12.2339
2023-05-13T02:54:29.100Z,12.2706
2023-05-13T02:55:30.093Z,12.0579
2023-05-13T02:56:31.098Z,11.8851
2023-05-13T02:57:32.094Z,11.9600
2023-05-13T02:58:33.034Z,11.9112
2023-05-13T02:59:34.055Z,12.0219
2023-05-13T03:00:35.007Z,11.9415
2023-05-13T03:01:36.028Z,11.9346
2023-05-13T03:02:37.091Z,11.8487
2023-05-13T03:03:38.214Z,11.8194
2023-05-13T03:04:39.133Z,11.9745
2023-05-13T03:05:40.115Z,11.9433
2023-05-13T03:06:41.141Z,11.9108
2023-05-13T03:07:42.148Z,11.8462
2023-05-13T03:08:43.177Z,11.7188
2023-05-13T03:09:44.143Z,11.6250
2023-05-13T03:10:45.144Z,11.6791
2023-05-13T03:11:46.092Z,11.7217
2023-05-13T03:12:47.092Z,11.7945
2023-05-13T03:13:48.105Z,11.9345
2023-05-13T03:14:49.075Z,12.0527
2023-05-13T03:15:50.100Z,12.1564
2023-05-13T03:16:51.018Z,12.2818
2023-05-13T03:17:52.055Z,12.3603
2023-05-13T03:18:53.047Z,12.3688
2023-05-13T03:19:55.044Z,12.4339
2023-05-13T03:20:56.012Z,12.2430
2023-05-13T03:21:56.987Z,12.0586
2023-05-13T03:22:57.973Z,12.1443
2023-05-13T03:23:58.943Z,12.2352
2023-05-13T03:24:59.887Z,12.2420
2023-05-13T03:26:00.902Z,12.3545
2023-05-13T03:27:01.914Z,12.4777
2023-05-13T03:28:02.889Z,12.4846
2023-05-13T03:29:03.844Z,12.2388
2023-05-13T03:30:04.795Z,12.2551
2023-05-13T03:31:05.999Z,12.3127
2023-05-13T03:32:06.967Z,12.2877
2023-05-13T03:33:07.974Z,12.2745
2023-05-13T03:34:08.915Z,12.3015
2023-05-13T03:35:09.891Z,12.2772
2023-05-13T03:36:10.940Z,12.2312
2023-05-13T03:37:11.935Z,12.1097
2023-05-13T03:38:12.986Z,12.1597
2023-05-13T03:39:13.894Z,12.2398
2023-05-13T03:40:14.856Z,12.2654
2023-05-13T03:41:15.840Z,12.3562
2023-05-13T03:42:16.860Z,12.3718
2023-05-13T03:43:17.801Z,12.3098
2023-05-13T03:44:18.887Z,12.3467
2023-05-13T03:45:19.782Z,12.4183
2023-05-13T03:46:20.738Z,12.4279
2023-05-13T03:47:21.784Z,12.4685
2023-05-13T03:48:22.729Z,12.4351
2023-05-13T03:49:23.681Z,12.3658
2023-05-13T03:50:24.894Z,12.1131
2023-05-13T03:51:25.981Z,11.8590
2023-05-13T03:52:26.993Z,11.7863
2023-05-13T03:53:28.030Z,11.7845
2023-05-13T03:54:28.992Z,11.8919
2023-05-13T03:55:30.017Z,11.9316
2023-05-13T03:56:30.977Z,12.0054
2023-05-13T03:57:31.947Z,12.1351
2023-05-13T03:58:32.957Z,12.2097
2023-05-13T03:59:33.897Z,12.2901
2023-05-13T04:00:34.849Z,12.3234
2023-05-13T04:01:35.935Z,12.2745
2023-05-13T04:02:37.067Z,12.1913
2023-05-13T04:03:38.022Z,12.3068
2023-05-13T04:04:38.989Z,12.2060
2023-05-13T04:05:39.951Z,12.1630
2023-05-13T04:06:40.966Z,12.1992
2023-05-13T04:07:41.926Z,12.2863
2023-05-13T04:08:42.922Z,12.3812
2023-05-13T04:09:43.859Z,12.2573
2023-05-13T04:10:44.868Z,11.9471
2023-05-13T04:11:45.833Z,11.8899
2023-05-13T04:12:46.801Z,12.0604
2023-05-13T04:13:47.808Z,12.2155
2023-05-13T04:14:48.781Z,12.3272
2023-05-13T04:15:49.740Z,12.4067
2023-05-13T04:16:50.850Z,12.4445
2023-05-13T04:17:51.791Z,12.4401
2023-05-13T04:18:52.867Z,12.4306
2023-05-13T04:19:53.830Z,12.5006
2023-05-13T04:20:54.830Z,12.5794
2023-05-13T04:21:55.785Z,12.5825
2023-05-13T04:22:56.730Z,12.6292
2023-05-13T04:23:57.717Z,12.7283
2023-05-13T04:24:58.734Z,12.7956
2023-05-13T04:25:59.648Z,12.6376
2023-05-13T04:27:01.592Z,12.2768
2023-05-13T04:28:02.602Z,12.2610
2023-05-13T04:29:03.645Z,12.1083
2023-05-13T04:30:04.612Z,12.1370
2023-05-13T04:31:05.588Z,12.1558
2023-05-13T04:32:06.677Z,11.8722
2023-05-13T04:33:07.753Z,11.7432
2023-05-13T04:34:08.700Z,11.7436
2023-05-13T04:35:09.769Z,11.5909
2023-05-13T04:36:10.863Z,11.4333
2023-05-13T04:37:12.118Z,11.3214
2023-05-13T04:38:13.087Z,11.3350
2023-05-13T04:39:14.088Z,11.4146
2023-05-13T04:40:15.051Z,11.5351
2023-05-13T04:41:16.123Z,11.4116
2023-05-13T04:42:17.064Z,11.3111
2023-05-13T04:43:18.094Z,11.2326
2023-05-13T04:44:19.038Z,11.1482
2023-05-13T04:45:20.077Z,11.0973
2023-05-13T04:46:21.090Z,11.0404
2023-05-13T04:47:22.195Z,11.0265
2023-05-13T04:48:23.116Z,11.0512
2023-05-13T04:49:24.116Z,11.0200
2023-05-13T04:50:25.330Z,10.9994
2023-05-13T04:51:26.775Z,11.0413
2023-05-13T04:52:28.101Z,11.0969
2023-05-13T04:53:29.094Z,11.1167
2023-05-13T04:54:30.074Z,11.0776
2023-05-13T04:55:31.111Z,11.0655
2023-05-13T04:56:32.057Z,11.1384
2023-05-13T04:57:33.074Z,11.1818
2023-05-13T04:58:34.049Z,11.1733
2023-05-13T04:59:35.039Z,11.2164
2023-05-13T05:00:36.049Z,11.2539
2023-05-13T05:01:37.067Z,11.1769
2023-05-13T05:02:38.053Z,11.1871
2023-05-13T05:03:39.046Z,11.2546
2023-05-13T05:04:39.996Z,11.3310
2023-05-13T05:05:40.999Z,11.2908
2023-05-13T05:06:42.010Z,11.2727
2023-05-13T05:07:43.050Z,11.2974
2023-05-13T05:08:44.022Z,11.2358
2023-05-13T05:09:45.079Z,11.1759
2023-05-13T05:10:45.991Z,11.1898
2023-05-13T05:11:47.025Z,11.2019
2023-05-13T05:12:48.017Z,11.2243
2023-05-13T05:13:49.033Z,11.2083
2023-05-13T05:14:49.987Z,11.1759
2023-05-13T05:15:50.978Z,11.1850
2023-05-13T05:16:52.022Z,11.1742
2023-05-13T05:17:53.086Z,11.1945
2023-05-13T05:18:54.118Z,11.1487
2023-05-13T05:19:55.138Z,11.1404
2023-05-13T05:20:56.117Z,11.1511
2023-05-13T05:21:57.131Z,11.1423
2023-05-13T05:22:58.125Z,11.1130
2023-05-13T05:23:59.149Z,11.1186
2023-05-13T05:25:00.111Z,11.1648
2023-05-13T05:26:11.307Z,11.1348
2023-05-13T05:27:01.453Z,11.1092
2023-05-13T05:28:02.510Z,11.2073
2023-05-13T05:29:03.439Z,11.1834
2023-05-13T05:30:04.482Z,11.1862
2023-05-13T05:31:05.441Z,11.1758
2023-05-13T05:32:06.494Z,11.1731
2023-05-13T05:33:07.518Z,11.1957
2023-05-13T05:34:08.496Z,11.2350
2023-05-13T05:35:09.448Z,11.2225
2023-05-13T05:36:10.405Z,11.2872
2023-05-13T05:37:11.568Z,11.3457
2023-05-13T05:38:12.606Z,11.3817
2023-05-13T05:39:13.548Z,11.3537
2023-05-13T05:40:14.562Z,11.2827
2023-05-13T05:41:15.522Z,11.2400
2023-05-13T05:42:16.521Z,11.2142
2023-05-13T05:43:17.489Z,11.2420
2023-05-13T05:44:18.539Z,11.2098
2023-05-13T05:45:19.545Z,11.2377
2023-05-13T05:46:20.617Z,11.2973
2023-05-13T05:47:21.589Z,11.2830
2023-05-13T05:48:22.639Z,11.3007
2023-05-13T05:49:23.551Z,11.2733
2023-05-13T05:50:24.580Z,11.2674
2023-05-13T05:51:25.534Z,11.3267
2023-05-13T05:52:26.635Z,11.3354
2023-05-13T05:53:27.613Z,11.3763
2023-05-13T05:54:28.578Z,11.3977
2023-05-13T05:55:29.572Z,11.3943
2023-05-13T05:56:30.622Z,11.4061
2023-05-13T05:57:31.672Z,11.3551
2023-05-13T05:58:32.648Z,11.3746
2023-05-13T05:59:33.690Z,11.4381
2023-05-13T06:00:34.724Z,11.4697
2023-05-13T06:01:35.778Z,11.4317
2023-05-13T06:02:36.767Z,11.4378
2023-05-13T06:03:37.988Z,11.4550
2023-05-13T06:04:38.990Z,11.4393
2023-05-13T06:05:40.069Z,11.4210
2023-05-13T06:06:40.980Z,11.5554
2023-05-13T06:07:42.038Z,11.6248
2023-05-13T06:08:43.043Z,11.6577
2023-05-13T06:09:43.967Z,11.6319
2023-05-13T06:10:45.010Z,11.6394
2023-05-13T06:11:46.043Z,11.6532
2023-05-13T06:12:46.998Z,11.6241
2023-05-13T06:14:48.565Z,11.7844
2023-05-13T06:15:49.587Z,11.7237
2023-05-13T06:16:50.746Z,11.6818
2023-05-13T06:17:51.783Z,11.7790
2023-05-13T06:18:52.844Z,11.8882
2023-05-13T06:19:53.866Z,11.8307
2023-05-13T06:20:54.934Z,11.8526
2023-05-13T06:21:55.975Z,11.9626
2023-05-13T06:22:56.980Z,12.0346
2023-05-13T06:23:58.050Z,12.1032
2023-05-13T06:24:59.003Z,12.0782
2023-05-13T06:26:00.242Z,12.1903
2023-05-13T06:27:01.166Z,12.2958
2023-05-13T06:28:03.150Z,12.2636
2023-05-13T06:29:04.253Z,12.1393
2023-05-13T06:30:05.537Z,12.2350
2023-05-13T06:31:06.542Z,12.1390
2023-05-13T06:32:07.726Z,12.0684
2023-05-13T06:33:08.932Z,12.0693
2023-05-13T06:34:10.021Z,11.9658
2023-05-13T06:35:10.965Z,11.9970
2023-05-13T06:36:12.009Z,12.1230
2023-05-13T06:37:13.067Z,12.0236
2023-05-13T06:38:14.366Z,12.1067
2023-05-13T06:39:15.372Z,12.2788
2023-05-13T06:40:16.388Z,12.3246
2023-05-13T06:41:20.821Z,12.2150
2023-05-13T06:42:19.186Z,12.2493
2023-05-13T06:43:20.292Z,12.3380
2023-05-13T06:44:21.253Z,12.4800
2023-05-13T06:45:22.199Z,12.6005
2023-05-13T06:46:23.294Z,12.7006
2023-05-13T06:47:24.283Z,12.6154
2023-05-13T06:48:25.299Z,12.6118
2023-05-13T06:49:27.752Z,12.7554
2023-05-13T06:50:28.902Z,12.7578
2023-05-13T06:51:29.598Z,12.6287
2023-05-13T06:52:31.972Z,12.4927
2023-05-13T06:53:31.237Z,12.4928
2023-05-13T06:54:33.128Z,12.4933
2023-05-13T06:55:35.293Z,12.3473
2023-05-13T06:56:39.357Z,12.3758
2023-05-13T06:57:43.014Z,12.4125
2023-05-13T06:58:39.437Z,12.4055
2023-05-13T06:59:42.079Z,12.4551
2023-05-13T07:00:45.180Z,12.2985
2023-05-13T07:01:46.618Z,12.2632
2023-05-13T07:02:48.373Z,12.2835
2023-05-13T07:03:50.463Z,12.3480
2023-05-13T07:04:51.786Z,12.3141
2023-05-13T07:15:45.464Z,12.1306
2023-05-13T07:16:05.652Z,12.0596
2023-05-13T07:17:19.608Z,12.0407
2023-05-13T07:21:06.941Z,12.0373
2023-05-13T07:22:11.272Z,12.0926
2023-05-13T07:23:10.160Z,12.2299
2023-05-13T07:24:12.166Z,12.3063
2023-05-13T07:25:11.560Z,12.3388
2023-05-13T07:26:12.764Z,12.4201
2023-05-13T07:27:14.991Z,12.5617
2023-05-13T07:28:17.084Z,12.6073
2023-05-13T07:29:20.287Z,12.7024
2023-05-13T07:31:55.489Z,12.7208
2023-05-13T07:31:55.489Z,12.7595
2023-05-13T07:32:57.602Z,12.7410
2023-05-13T07:33:58.216Z,12.5507
2023-05-13T07:34:57.968Z,12.5021
2023-05-13T07:35:59.882Z,12.4937
2023-05-13T07:37:01.007Z,12.6744
2023-05-13T07:38:02.338Z,12.8367
2023-05-13T07:39:03.330Z,12.9167
2023-05-13T07:40:04.391Z,12.9625
2023-05-13T07:41:05.447Z,13.0712
2023-05-13T07:42:06.580Z,13.0872
2023-05-13T07:43:07.704Z,12.8388
2023-05-13T07:44:08.732Z,12.8020
2023-05-13T07:45:09.759Z,12.6718
2023-05-13T07:46:12.946Z,12.6121
2023-05-13T07:48:57.173Z,12.6539
2023-05-13T07:49:58.441Z,12.6537
2023-05-13T07:50:59.355Z,12.5884
2023-05-13T07:52:00.401Z,12.5997
2023-05-13T07:53:01.379Z,12.6492
2023-05-13T07:54:02.474Z,12.7743
2023-05-13T07:55:03.448Z,12.7955
2023-05-13T07:56:04.505Z,12.7846
2023-05-13T07:57:05.514Z,12.7218
2023-05-13T07:58:06.513Z,12.6822
2023-05-13T07:59:07.524Z,12.6276
2023-05-13T08:00:09.686Z,12.5892
2023-05-13T08:01:10.628Z,12.7079
2023-05-13T08:02:11.661Z,12.7923
2023-05-13T08:04:14.407Z,12.8581
2023-05-13T08:05:16.373Z,12.7148
2023-05-13T08:08:29.587Z,12.6471
2023-05-13T08:13:10.589Z,12.6216
2023-05-13T08:13:10.589Z,12.6251
2023-05-13T08:13:10.589Z,12.5607
2023-05-13T08:20:08.238Z,12.6109
2023-05-13T08:20:08.238Z,12.5933
2023-05-13T08:20:08.238Z,12.5057
2023-05-13T08:23:44.035Z,12.3989
2023-05-13T08:23:44.035Z,12.4202
2023-05-13T08:23:44.035Z,12.5120
2023-05-13T08:24:33.562Z,12.6172
2023-05-13T08:25:34.519Z,12.8080
2023-05-13T08:26:35.548Z,12.7994
2023-05-13T08:27:38.084Z,12.8335
2023-05-13T08:28:39.144Z,12.7137
2023-05-13T08:29:40.185Z,12.6527
2023-05-13T08:30:41.163Z,12.5408
2023-05-13T08:31:42.185Z,12.4995
2023-05-13T08:32:43.238Z,12.5301
2023-05-13T08:33:44.296Z,12.5326
2023-05-13T08:34:45.313Z,12.4157
2023-05-13T08:35:46.411Z,12.3467
2023-05-13T08:36:47.448Z,12.3612
2023-05-13T08:37:48.525Z,12.3483
2023-05-13T08:38:49.582Z,12.2775
2023-05-13T08:39:50.636Z,12.2337
2023-05-13T08:40:51.693Z,12.2388
2023-05-13T08:41:52.773Z,12.3636
2023-05-13T08:42:53.866Z,12.4577
2023-05-13T08:43:55.025Z,12.5123
2023-05-13T08:44:56.031Z,12.4396
2023-05-13T08:45:58.202Z,12.3365
2023-05-13T08:46:59.257Z,12.3297
2023-05-13T08:48:00.525Z,12.4749
2023-05-13T08:49:02.711Z,12.5328
2023-05-13T08:50:04.682Z,12.5230
2023-05-13T08:51:05.936Z,12.4914
2023-05-13T08:52:07.196Z,12.4393
2023-05-13T08:53:08.300Z,12.4826
2023-05-13T08:54:09.433Z,12.5216
2023-05-13T08:55:10.473Z,12.6806
2023-05-13T08:56:11.870Z,12.7818
2023-05-13T08:57:13.424Z,12.6749
2023-05-13T08:58:14.549Z,12.6835
2023-05-13T08:59:15.832Z,12.8231
2023-05-13T09:00:17.983Z,12.8995
2023-05-13T09:01:20.088Z,12.8327
2023-05-13T09:02:21.243Z,12.9214
2023-05-13T09:03:22.474Z,12.9811
2023-05-13T09:04:23.992Z,12.8268
2023-05-13T09:05:25.807Z,12.8885
2023-05-13T09:06:27.191Z,13.0232
2023-05-13T09:07:28.870Z,13.1178
2023-05-13T09:08:30.502Z,13.0967
2023-05-13T09:09:31.897Z,13.0357
2023-05-13T10:10:07.314Z,13.2349
2023-05-13T10:10:07.314Z,13.3046
2023-05-13T10:10:07.314Z,13.2496
2023-05-13T10:11:08.271Z,15.2656
2023-05-13T10:12:09.234Z,15.2715
2023-05-13T10:13:10.258Z,15.3110
2023-05-13T10:14:11.332Z,15.3704
2023-05-13T10:15:12.462Z,15.4308
2023-05-13T10:16:14.510Z,15.4802
2023-05-13T10:17:15.547Z,15.4736
2023-05-13T10:18:16.674Z,15.4665
2023-05-13T10:19:17.818Z,15.5119
2023-05-13T10:20:19.394Z,15.5720
2023-05-13T10:21:21.519Z,15.5925
2023-05-13T10:45:47.439Z,15.4616
2023-05-13T10:45:47.439Z,15.4583
2023-05-13T10:45:47.439Z,15.3952
2023-05-13T10:46:29.278Z,14.8667
2023-05-13T10:47:30.544Z,15.0774
2023-05-13T10:48:31.830Z,15.0418
2023-05-13T10:49:33.180Z,15.2065
2023-05-13T10:50:34.248Z,15.1150
2023-05-13T10:51:35.272Z,14.7667
2023-05-13T10:52:36.401Z,14.8416
2023-05-13T10:53:37.480Z,15.0171
2023-05-13T10:54:38.481Z,15.1556
2023-05-13T10:55:39.622Z,15.2855
2023-05-13T10:56:40.682Z,15.4734
2023-05-13T10:57:41.661Z,15.4054
2023-05-13T10:58:42.826Z,15.4289
2023-05-13T10:59:43.996Z,15.5723
2023-05-13T11:00:45.051Z,15.7062
2023-05-13T11:01:46.324Z,15.6898
2023-05-13T11:02:47.491Z,15.7328
2023-05-13T11:03:49.676Z,15.8817
2023-05-13T11:04:50.645Z,15.8316
2023-05-13T11:05:55.999Z,15.7633
2023-05-13T11:29:18.527Z,15.8688
2023-05-13T11:29:18.527Z,15.7293
2023-05-13T11:29:18.527Z,15.6666
2023-05-13T11:30:13.373Z,15.9327
2023-05-13T11:31:16.537Z,15.9902
2023-05-13T11:36:55.742Z,15.8856
2023-05-13T11:36:55.742Z,15.8231
2023-05-13T15:10:53.957Z,15.8068
2023-05-13T15:10:53.957Z,15.7219
2023-05-13T15:10:53.957Z,15.7684
2023-05-13T15:11:15.262Z,15.6880
2023-05-13T15:12:16.682Z,15.7661
2023-05-13T15:13:16.750Z,15.7950
2023-05-13T15:14:18.139Z,15.8274
2023-05-13T15:15:19.535Z,15.8775
2023-05-13T15:17:23.268Z,15.7048
2023-05-13T15:18:25.936Z,15.5912
2023-05-13T15:19:29.496Z,15.5065
2023-05-13T15:20:31.336Z,15.5212
2023-05-13T15:21:34.105Z,15.6371
2023-05-13T15:22:35.268Z,15.6922
2023-05-13T15:23:38.516Z,15.6543
2023-05-13T15:24:41.169Z,15.6694
2023-05-13T15:25:44.058Z,15.5145
2023-05-13T15:26:43.966Z,15.4164
2023-05-13T15:27:46.023Z,15.4787
2023-05-13T15:28:49.658Z,15.4862
2023-05-13T15:29:47.820Z,15.3975
2023-05-13T15:30:50.534Z,15.3674
2023-05-13T15:31:53.470Z,15.2516
2023-05-13T15:32:53.579Z,15.2540
2023-05-13T15:33:56.365Z,15.1491
2023-05-13T15:34:59.088Z,14.9840
2023-05-13T15:35:58.491Z,15.0275
2023-05-13T15:37:00.714Z,15.0711
2023-05-13T15:38:02.134Z,15.0552
2023-05-13T15:39:03.308Z,15.1070
2023-05-13T15:40:04.522Z,15.1085
2023-05-13T15:41:05.947Z,15.0481
2023-05-13T15:42:07.224Z,14.9581
2023-05-13T15:43:08.423Z,14.8569
2023-05-13T15:44:09.603Z,14.9422
2023-05-13T15:45:10.773Z,14.9225
2023-05-13T15:46:12.084Z,14.9772
2023-05-13T15:47:13.513Z,14.9558
2023-05-13T15:48:15.699Z,14.9662
2023-05-13T15:49:17.330Z,15.0752
2023-05-13T15:50:19.241Z,15.2258
2023-05-13T15:51:21.617Z,15.2078
2023-05-13T15:52:23.139Z,15.0492
2023-05-13T15:53:24.322Z,15.1207
2023-05-13T15:54:26.113Z,15.1936
2023-05-13T15:55:27.386Z,15.2399
2023-05-13T15:56:28.728Z,15.4110
2023-05-13T15:57:29.874Z,15.3967
2023-05-13T15:58:31.957Z,15.3883
2023-05-13T15:59:33.164Z,15.4632
2023-05-13T16:00:34.281Z,15.4606
2023-05-13T16:01:36.623Z,15.4435
2023-05-13T16:02:37.755Z,15.4143
2023-05-13T16:03:39.276Z,15.3146
2023-05-13T16:04:40.546Z,15.4050
2023-05-13T16:05:41.773Z,15.1954
2023-05-13T16:06:43.026Z,15.0036
2023-05-13T16:07:44.182Z,14.9603
2023-05-13T16:08:45.298Z,15.0321
2023-05-13T16:09:46.609Z,15.1963
2023-05-13T16:10:48.353Z,15.2299
2023-05-13T16:11:49.742Z,15.1880
2023-05-13T16:12:50.976Z,15.2192
2023-05-13T16:13:52.255Z,15.2790
2023-05-13T16:14:53.402Z,15.2835
2023-05-13T16:15:55.192Z,15.1130
2023-05-13T16:16:57.337Z,15.0014
2023-05-13T16:17:58.713Z,14.9486
2023-05-13T16:19:00.141Z,14.9463
2023-05-13T16:20:01.552Z,14.8965
2023-05-13T16:21:02.963Z,14.9173
2023-05-13T16:22:04.449Z,15.0099
2023-05-13T16:23:05.585Z,15.0727
2023-05-13T16:24:07.251Z,15.0566
2023-05-13T16:25:09.501Z,15.0863
2023-05-13T16:26:10.595Z,15.0935
2023-05-13T16:27:11.761Z,14.9936
2023-05-13T16:28:13.109Z,15.0413
2023-05-13T16:29:15.709Z,14.8625
2023-05-13T16:30:16.971Z,14.7779
2023-05-13T16:31:18.164Z,14.7956
2023-05-13T16:32:19.818Z,14.7735
2023-05-13T16:33:21.971Z,14.6396
2023-05-13T16:34:23.286Z,14.5473
2023-05-13T16:35:24.597Z,14.5481
2023-05-13T16:36:25.871Z,14.7286
2023-05-13T16:37:26.986Z,14.6890
2023-05-13T16:38:28.087Z,14.8155
2023-05-13T16:39:29.749Z,14.8414
2023-05-13T16:40:30.859Z,14.7569
2023-05-13T16:41:31.978Z,14.7570
2023-05-13T16:42:33.369Z,14.8073
2023-05-13T16:43:34.506Z,14.7454
2023-05-13T16:44:35.669Z,14.7368
2023-05-13T16:45:36.901Z,14.5738
2023-05-13T16:46:40.115Z,14.5132
2023-05-13T16:47:42.325Z,14.4935
2023-05-13T16:48:44.747Z,14.4136
2023-05-13T16:49:45.901Z,14.4312
2023-05-13T16:50:47.026Z,14.5295
2023-05-13T16:51:48.402Z,14.5542
2023-05-13T16:52:49.490Z,14.5123
2023-05-13T16:53:50.791Z,14.4933
2023-05-13T16:54:51.937Z,14.2899
2023-05-13T16:55:53.435Z,14.1843
2023-05-13T16:56:54.674Z,14.2303
2023-05-13T16:57:55.825Z,14.2960
2023-05-13T16:58:57.312Z,14.3405
2023-05-13T16:59:58.676Z,14.3484
2023-05-13T17:00:59.983Z,14.3063
2023-05-13T17:02:02.263Z,14.3240
2023-05-13T17:03:04.921Z,14.3218
2023-05-13T17:04:06.214Z,14.2932
2023-05-13T17:05:07.625Z,14.1891
2023-05-13T17:06:09.680Z,14.1469
2023-05-13T17:07:11.103Z,14.1064
2023-05-13T17:08:12.488Z,14.0995
2023-05-13T17:09:13.670Z,14.1869
2023-05-13T17:10:15.082Z,14.1698
2023-05-13T17:11:16.214Z,14.1478
2023-05-13T17:12:18.458Z,14.0628
2023-05-13T17:13:19.881Z,13.9765
2023-05-13T17:14:21.717Z,13.9942
2023-05-13T17:15:23.028Z,13.9879
2023-05-13T17:16:24.447Z,14.0712
2023-05-13T17:17:25.715Z,14.0223
2023-05-13T17:18:26.899Z,13.9553
2023-05-13T17:19:29.016Z,14.0643
2023-05-13T17:20:30.604Z,14.0700
2023-05-13T17:21:32.089Z,14.1272
2023-05-13T17:22:33.217Z,14.0653
2023-05-13T17:23:34.525Z,14.0490
2023-05-13T17:24:36.814Z,14.0754
2023-05-13T17:25:36.057Z,14.0849
2023-05-13T17:26:38.603Z,13.9226
2023-05-13T17:27:38.079Z,13.7996
2023-05-13T17:28:39.516Z,13.8104
2023-05-13T17:29:40.745Z,13.9132
2023-05-13T17:30:41.822Z,13.9678
2023-05-13T17:31:43.299Z,13.9101
2023-05-13T17:32:45.493Z,13.8041
2023-05-13T17:33:46.979Z,13.6760
2023-05-13T17:34:48.411Z,13.4703
2023-05-13T17:35:49.788Z,13.4012
2023-05-13T17:36:50.948Z,13.3891
2023-05-13T17:37:52.567Z,13.4868
2023-05-13T17:38:53.881Z,13.4526
2023-05-13T17:39:55.100Z,13.4062
2023-05-13T17:40:56.535Z,13.4343
2023-05-13T17:41:57.981Z,13.4391
2023-05-13T17:42:59.488Z,13.4902
2023-05-13T17:44:00.768Z,13.4529
2023-05-13T17:45:02.619Z,13.4830
2023-05-13T17:46:03.881Z,13.5046
2023-05-13T17:47:05.054Z,13.6222
2023-05-13T17:48:06.300Z,13.7577
2023-05-13T17:49:07.417Z,13.7392
2023-05-13T17:50:08.569Z,13.8189
2023-05-13T17:51:09.757Z,13.9242
2023-05-13T17:52:11.144Z,13.9249
2023-05-13T17:53:12.431Z,13.8718
2023-05-13T17:54:13.594Z,13.9993
2023-05-13T17:55:15.922Z,14.1678
2023-05-13T17:56:15.268Z,14.2171
2023-05-13T17:57:16.916Z,14.1573
2023-05-13T17:58:18.386Z,14.1108
2023-05-13T17:59:20.008Z,14.1228
2023-05-13T18:00:21.594Z,14.1201
2023-05-13T18:01:24.175Z,14.0782
2023-05-13T18:02:25.403Z,14.1023
2023-05-13T18:03:26.550Z,13.8415